Time;durP1;ratioP1;P1;durP2;ratioP2;P2;SDS_P1;SDS_P2;PMS_P1;PMS_P2;Temp;Humidity;BMP_temperature;BMP_pressure;BME280_temperature;BME280_humidity;BME280_pressure;Samples;Min_cycle;Max_cycle;Signal;HPM_P1;HPM_P2
2021/05/10 00:02:08;;;;;;;18.65;16.33;;;22.70;44.90;;;;;;4419849;60;21028;-26
2021/05/10 00:07:09;;;;;;;18.35;16.25;;;22.70;44.90;;;;;;4400462;60;21083;-25
2021/05/10 00:12:12;;;;;;;18.92;16.30;;;22.70;44.90;;;;;;4423432;60;21116;-23
2021/05/10 00:17:12;;;;;;;17.92;15.48;;;22.70;45.00;;;;;;4388086;60;21545;-23
2021/05/10 00:22:13;;;;;;;19.30;16.55;;;22.70;45.60;;;;;;4396373;60;21043;-23
2021/05/10 00:27:14;;;;;;;17.42;15.32;;;22.70;44.90;;;;;;4400226;60;21071;-25
2021/05/10 00:32:16;;;;;;;18.67;16.30;;;22.70;44.90;;;;;;4387452;64;21099;-22
2021/05/10 00:37:17;;;;;;;16.87;15.10;;;22.70;44.90;;;;;;4428534;60;21605;-24
2021/05/10 00:42:18;;;;;;;18.90;15.95;;;22.70;44.90;;;;;;4465753;60;21047;-25
2021/05/10 00:47:19;;;;;;;19.58;15.90;;;22.70;44.90;;;;;;4390189;60;21083;-22
2021/05/10 00:52:19;;;;;;;16.02;14.32;;;22.70;44.90;;;;;;4402770;60;21058;-24
2021/05/10 00:57:21;;;;;;;16.60;14.75;;;22.70;44.90;;;;;;4421878;60;21031;-27
2021/05/10 01:02:23;;;;;;;16.92;14.87;;;22.70;44.90;;;;;;4398906;60;21112;-24
2021/05/10 01:07:24;;;;;;;18.15;15.30;;;22.70;44.90;;;;;;4414203;60;21550;-16
2021/05/10 01:12:25;;;;;;;17.23;14.68;;;22.70;45.00;;;;;;4399197;60;21047;-26
2021/05/10 01:17:26;;;;;;;18.52;14.87;;;22.70;44.90;;;;;;4442284;60;21541;-20
2021/05/10 01:22:43;;;;;;;17.60;15.02;;;22.70;45.00;;;;;;4388905;64;21039;-27
2021/05/10 01:27:44;;;;;;;16.15;14.25;;;22.70;44.90;;;;;;4399750;60;21039;-24
2021/05/10 01:32:46;;;;;;;16.30;14.50;;;22.70;44.90;;;;;;4409898;60;21108;-21
2021/05/10 01:37:47;;;;;;;16.35;14.48;;;22.70;44.90;;;;;;4441507;60;21079;-26
2021/05/10 01:42:49;;;;;;;17.58;13.48;;;22.70;45.10;;;;;;4397240;60;21167;-26
2021/05/10 01:47:59;;;;;;;16.98;14.65;;;22.70;44.90;;;;;;4414947;60;21039;-27
2021/05/10 01:53:00;;;;;;;14.65;13.00;;;22.70;44.90;;;;;;4400289;60;21064;-22
2021/05/10 01:58:02;;;;;;;16.62;14.13;;;22.70;44.90;;;;;;4389988;60;21063;-24
2021/05/10 02:03:26;;;;;;;15.07;13.27;;;22.70;44.90;;;;;;4420790;60;21088;-24
2021/05/10 02:08:28;;;;;;;15.40;13.52;;;22.70;44.90;;;;;;4489337;60;21131;-21
2021/05/10 02:13:29;;;;;;;15.90;13.48;;;22.70;44.90;;;;;;4430728;60;21510;-24
2021/05/10 02:18:32;;;;;;;15.48;13.30;;;22.70;44.90;;;;;;4395620;60;21051;-27
2021/05/10 02:23:36;;;;;;;14.68;12.85;;;22.70;44.90;;;;;;4396693;60;21074;-25
2021/05/10 02:28:38;;;;;;;15.48;13.02;;;22.70;44.90;;;;;;4406801;60;21645;-26
2021/05/10 02:33:40;;;;;;;14.85;12.80;;;22.70;45.00;;;;;;4408458;60;21044;-25
2021/05/10 02:38:42;;;;;;;14.13;12.35;;;22.70;44.90;;;;;;4407128;60;21035;-26
2021/05/10 02:43:42;;;;;;;14.55;12.50;;;22.70;45.00;;;;;;4403900;60;21687;-24
2021/05/10 02:48:43;;;;;;;14.85;12.73;;;22.70;45.00;;;;;;4430749;60;21051;-23
2021/05/10 02:53:44;;;;;;;14.15;12.43;;;22.70;44.90;;;;;;4408758;60;21107;-23
2021/05/10 02:58:47;;;;;;;15.05;12.73;;;22.70;44.90;;;;;;4400506;60;21048;-25
2021/05/10 03:03:48;;;;;;;13.10;11.20;;;22.70;44.90;;;;;;4405258;60;21112;-25
2021/05/10 03:08:49;;;;;;;14.07;12.35;;;22.70;44.90;;;;;;4404764;60;21134;-23
2021/05/10 03:13:50;;;;;;;13.80;11.63;;;22.70;44.90;;;;;;4449852;60;21072;-26
2021/05/10 03:18:50;;;;;;;13.40;11.32;;;22.70;45.00;;;;;;4404810;60;21040;-24
2021/05/10 03:23:51;;;;;;;13.52;11.95;;;22.70;44.80;;;;;;4396003;60;21048;-22
2021/05/10 03:28:52;;;;;;;11.85;10.65;;;22.70;44.80;;;;;;4387230;64;22542;-26
2021/05/10 03:33:53;;;;;;;14.38;11.35;;;22.70;44.70;;;;;;4401986;60;21064;-26
2021/05/10 03:38:54;;;;;;;13.85;11.25;;;22.70;44.70;;;;;;4392604;60;21023;-26
2021/05/10 03:43:57;;;;;;;13.13;10.75;;;22.70;44.70;;;;;;4422592;60;21550;-26
2021/05/10 03:48:58;;;;;;;13.20;10.70;;;22.60;44.70;;;;;;4386721;64;22121;-26
2021/05/10 03:54:01;;;;;;;12.18;10.63;;;22.60;45.30;;;;;;4402802;60;21075;-26
2021/05/10 03:59:02;;;;;;;12.85;11.52;;;22.70;44.70;;;;;;4391152;60;21052;-25
2021/05/10 04:04:16;;;;;;;12.82;10.68;;;22.70;45.00;;;;;;4422133;60;21159;-25
2021/05/10 04:15:39;;;;;;;12.37;10.00;;;22.60;44.80;;;;;;4402056;60;21159;-27
2021/05/10 04:20:40;;;;;;;11.75;10.15;;;22.60;44.60;;;;;;4400888;60;21071;-23
2021/05/10 04:25:43;;;;;;;12.00;10.60;;;22.60;44.60;;;;;;4390079;60;21131;-25
2021/05/10 04:30:45;;;;;;;12.02;9.95;;;22.60;44.60;;;;;;4399409;60;21047;-27
2021/05/10 04:35:48;;;;;;;11.95;10.23;;;22.60;44.70;;;;;;4388017;60;21195;-25
2021/05/10 04:40:49;;;;;;;10.65;9.52;;;22.60;44.70;;;;;;4394441;60;21087;-27
2021/05/10 04:45:50;;;;;;;12.90;9.45;;;22.60;44.80;;;;;;4394471;60;21095;-26
2021/05/10 04:50:51;;;;;;;12.13;9.27;;;22.60;44.70;;;;;;4420137;60;21120;-23
2021/05/10 04:55:52;;;;;;;11.68;10.13;;;22.60;44.70;;;;;;4407738;60;21131;-27
2021/05/10 05:00:52;;;;;;;10.85;9.70;;;22.60;44.70;;;;;;4397080;60;21055;-27
2021/05/10 05:05:53;;;;;;;12.43;10.32;;;22.60;44.80;;;;;;4406031;60;21526;-27
2021/05/10 05:10:54;;;;;;;11.60;9.32;;;22.60;44.70;;;;;;4398217;60;21043;-25
2021/05/10 05:15:55;;;;;;;11.70;9.20;;;22.60;44.70;;;;;;4408707;60;21044;-25
2021/05/10 05:20:56;;;;;;;10.38;9.13;;;22.60;44.70;;;;;;4398940;60;21586;-24
2021/05/10 05:26:02;;;;;;;12.65;9.13;;;22.60;44.70;;;;;;4405707;60;21104;-26
2021/05/10 05:31:08;;;;;;;11.88;9.43;;;22.60;44.80;;;;;;4415958;60;21035;-25
2021/05/10 05:36:10;;;;;;;10.35;9.25;;;22.60;44.80;;;;;;4416333;60;21068;-24
2021/05/10 05:41:12;;;;;;;11.95;9.90;;;22.60;44.70;;;;;;4394515;60;21504;-24
2021/05/10 05:46:20;;;;;;;12.50;9.77;;;22.60;44.70;;;;;;4403600;60;21796;-25
2021/05/10 05:51:23;;;;;;;10.55;9.45;;;22.60;44.80;;;;;;4387564;64;21583;-27
2021/05/10 05:56:25;;;;;;;10.07;8.77;;;22.60;44.70;;;;;;4392929;60;21031;-25
2021/05/10 06:01:26;;;;;;;12.07;9.70;;;22.60;44.70;;;;;;4404056;60;21529;-25
2021/05/10 06:06:27;;;;;;;11.65;9.43;;;22.60;44.70;;;;;;4390022;60;21538;-26
2021/05/10 06:11:28;;;;;;;11.48;9.68;;;22.60;44.80;;;;;;4398415;60;21047;-28
2021/05/10 06:16:30;;;;;;;13.32;10.10;;;22.60;44.70;;;;;;4413480;60;21073;-26
2021/05/10 06:21:31;;;;;;;10.40;9.15;;;22.60;44.60;;;;;;4390537;60;21035;-26
2021/05/10 06:26:32;;;;;;;12.13;9.85;;;22.60;44.60;;;;;;4390378;60;21044;-27
2021/05/10 06:31:32;;;;;;;11.82;9.32;;;22.60;44.60;;;;;;4387656;64;21048;-26
2021/05/10 06:36:33;;;;;;;12.37;9.25;;;22.60;45.30;;;;;;4391376;60;21100;-27
2021/05/10 06:41:34;;;;;;;10.80;9.55;;;22.60;44.60;;;;;;4398570;60;21529;-27
2021/05/10 06:46:35;;;;;;;11.18;9.55;;;22.60;44.60;;;;;;4461095;60;21184;-24
2021/05/10 06:51:36;;;;;;;12.18;9.73;;;22.60;44.70;;;;;;4394182;60;21037;-26
2021/05/10 06:56:36;;;;;;;10.60;9.10;;;22.60;44.60;;;;;;4415555;60;21527;-27
2021/05/10 07:01:38;;;;;;;12.05;9.57;;;22.60;44.60;;;;;;4397437;60;21124;-23
2021/05/10 07:06:43;;;;;;;11.12;9.48;;;22.60;44.60;;;;;;4394605;60;21148;-26
2021/05/10 07:11:44;;;;;;;12.55;9.60;;;22.60;44.60;;;;;;4394392;60;21068;-24
2021/05/10 07:16:44;;;;;;;27.48;18.80;;;22.60;44.60;;;;;;4391499;60;22140;-25
2021/05/10 07:21:45;;;;;;;39.15;28.08;;;22.60;43.90;;;;;;4401403;60;21063;-22
2021/05/10 07:26:46;;;;;;;34.95;24.95;;;22.60;43.20;;;;;;4387427;64;21104;-27
2021/05/10 07:31:47;;;;;;;31.77;23.70;;;22.60;43.30;;;;;;4388319;60;21040;-26
2021/05/10 07:36:48;;;;;;;30.37;24.55;;;22.60;43.10;;;;;;4402919;60;21649;-26
2021/05/10 07:41:49;;;;;;;38.38;26.02;;;22.70;43.10;;;;;;4412202;60;21515;-27
2021/05/10 07:46:49;;;;;;;36.83;27.98;;;22.70;43.20;;;;;;4386028;64;21120;-22
2021/05/10 07:51:50;;;;;;;35.85;27.95;;;22.70;43.20;;;;;;4431063;60;21111;-26
2021/05/10 07:56:51;;;;;;;36.47;28.17;;;22.80;43.90;;;;;;4390994;60;21028;-26
2021/05/10 08:01:55;;;;;;;38.38;27.05;;;22.80;44.30;;;;;;4428191;60;21092;-27
2021/05/10 08:06:56;;;;;;;37.70;27.17;;;22.80;44.00;;;;;;4387308;60;21541;-25
2021/05/10 08:11:59;;;;;;;34.92;26.98;;;22.80;44.00;;;;;;4438424;60;21176;-27
2021/05/10 08:17:00;;;;;;;40.45;29.25;;;22.80;43.90;;;;;;4406013;60;21040;-26
2021/05/10 08:22:06;;;;;;;38.00;27.25;;;22.80;43.90;;;;;;4387493;64;21107;-35
2021/05/10 08:27:07;;;;;;;35.75;27.23;;;22.90;44.00;;;;;;4387194;64;21542;-26
2021/05/10 08:32:07;;;;;;;35.88;27.10;;;22.90;44.10;;;;;;4387784;64;21134;-24
2021/05/10 08:37:08;;;;;;;36.47;26.90;;;22.90;44.30;;;;;;4435297;60;21067;-24
2021/05/10 08:42:09;;;;;;;36.85;28.38;;;23.00;44.40;;;;;;4387228;64;21553;-27
2021/05/10 08:47:10;;;;;;;35.35;27.40;;;23.00;44.60;;;;;;4408376;60;21115;-25
2021/05/10 08:52:11;;;;;;;37.97;28.17;;;23.00;44.60;;;;;;4386677;64;21143;-25
2021/05/10 08:57:12;;;;;;;35.83;27.65;;;23.00;44.90;;;;;;4407692;60;21083;-27
2021/05/10 09:02:13;;;;;;;34.45;26.20;;;23.10;45.10;;;;;;4395226;60;21362;-26
2021/05/10 09:07:23;;;;;;;34.05;26.40;;;23.20;45.30;;;;;;4392300;60;21060;-21
2021/05/10 09:12:39;;;;;;;32.42;26.08;;;23.20;45.40;;;;;;4453406;60;21125;-27
2021/05/10 09:18:13;;;;;;;35.13;27.92;;;23.20;45.60;;;;;;4388900;60;21132;-25
2021/05/10 09:23:14;;;;;;;36.45;26.05;;;23.30;45.80;;;;;;4398755;60;21105;-21
2021/05/10 09:28:25;;;;;;;37.42;27.00;;;23.30;45.90;;;;;;4398898;60;21716;-21
2021/05/10 09:33:28;;;;;;;33.72;25.00;;;23.40;46.20;;;;;;4414066;60;21036;-24
2021/05/10 09:38:30;;;;;;;32.05;25.27;;;23.40;46.10;;;;;;4523785;60;21039;-26
2021/05/10 09:43:36;;;;;;;37.33;26.02;;;23.40;46.20;;;;;;4393064;60;21597;-26
2021/05/10 09:48:39;;;;;;;30.37;24.15;;;23.40;46.30;;;;;;4397292;60;21668;-25
2021/05/10 09:53:54;;;;;;;31.52;25.92;;;23.40;46.40;;;;;;4420284;60;21498;-24
2021/05/10 09:59:01;;;;;;;34.08;24.60;;;23.40;46.60;;;;;;4410325;60;21529;-26
2021/05/10 10:04:02;;;;;;;34.28;25.35;;;23.40;46.60;;;;;;4387265;64;22021;-26
2021/05/10 10:09:04;;;;;;;36.90;26.83;;;23.40;46.70;;;;;;4409224;60;21067;-25
2021/05/10 10:14:07;;;;;;;31.62;25.17;;;23.50;46.90;;;;;;4391860;60;21047;-24
2021/05/10 10:19:07;;;;;;;31.83;24.30;;;23.50;47.00;;;;;;4392792;60;21507;-23
2021/05/10 10:24:11;;;;;;;29.80;24.63;;;23.50;47.20;;;;;;4399313;60;21115;-20
2021/05/10 10:29:17;;;;;;;30.88;25.12;;;23.60;47.40;;;;;;4386823;64;21091;-26
2021/05/10 10:34:40;;;;;;;32.67;25.35;;;23.60;47.60;;;;;;4386636;64;21087;-28
2021/05/10 10:39:52;;;;;;;28.60;24.00;;;23.60;47.70;;;;;;4401855;60;22553;-25
2021/05/10 10:44:56;;;;;;;29.10;23.58;;;23.60;47.80;;;;;;4388251;60;21179;-25
2021/05/10 10:50:00;;;;;;;28.75;23.48;;;23.60;48.00;;;;;;4408117;60;21035;-22
2021/05/10 10:55:27;;;;;;;33.78;23.42;;;23.60;48.10;;;;;;4408753;60;21063;-25
2021/05/10 11:00:27;;;;;;;30.17;23.30;;;23.70;48.40;;;;;;4408147;60;21362;-27
2021/05/10 11:05:28;;;;;;;28.83;23.62;;;23.60;48.60;;;;;;4387919;60;21103;-27
2021/05/10 11:10:51;;;;;;;28.17;22.75;;;23.70;48.80;;;;;;4391331;60;21068;-26
2021/05/10 11:15:54;;;;;;;28.58;22.02;;;23.70;48.40;;;;;;4407064;60;22119;-25
2021/05/10 11:20:57;;;;;;;25.25;21.25;;;23.70;48.40;;;;;;4400256;60;21529;-25
2021/05/10 11:26:06;;;;;;;28.65;22.70;;;23.60;48.40;;;;;;4387811;64;21157;-28
2021/05/10 11:31:13;;;;;;;26.58;21.40;;;23.60;48.30;;;;;;4431239;60;21546;-23
2021/05/10 11:36:24;;;;;;;24.65;21.52;;;23.60;48.30;;;;;;4409521;60;21525;-25
2021/05/10 11:41:37;;;;;;;26.15;21.08;;;23.60;48.30;;;;;;4391558;60;21044;-23
2021/05/10 11:46:43;;;;;;;23.73;20.55;;;23.60;48.20;;;;;;4385909;64;21099;-19
2021/05/10 11:51:44;;;;;;;28.80;21.97;;;23.60;48.10;;;;;;4408304;60;21533;-25
2021/05/10 11:56:46;;;;;;;27.52;21.27;;;23.60;48.00;;;;;;4408239;60;21437;-23
2021/05/10 12:01:47;;;;;;;25.70;21.35;;;23.60;47.90;;;;;;4406451;60;21139;-25
2021/05/10 12:06:48;;;;;;;22.13;19.15;;;23.60;48.00;;;;;;4394924;60;21103;-24
2021/05/10 12:11:49;;;;;;;25.00;20.75;;;23.70;48.60;;;;;;4450718;60;21066;-25
2021/05/10 12:17:09;;;;;;;25.65;20.27;;;23.70;48.30;;;;;;4386946;64;22239;-24
2021/05/10 12:22:10;;;;;;;28.38;20.88;;;23.70;48.60;;;;;;4408641;60;21040;-25
2021/05/10 12:27:11;;;;;;;22.65;19.52;;;23.80;48.80;;;;;;4446805;60;21059;-26
2021/05/10 12:32:11;;;;;;;24.73;19.90;;;23.80;49.00;;;;;;4402987;60;22360;-24
2021/05/10 12:37:12;;;;;;;24.08;19.20;;;23.80;49.20;;;;;;4400768;60;21059;-25
2021/05/10 12:42:18;;;;;;;39.55;19.12;;;23.80;49.20;;;;;;4386342;64;22212;-24
2021/05/10 12:47:45;;;;;;;23.40;19.50;;;23.80;49.30;;;;;;4435100;60;21189;-22
2021/05/10 12:52:51;;;;;;;23.95;20.23;;;23.80;49.50;;;;;;4388412;60;21095;-23
2021/05/10 12:57:51;;;;;;;23.27;18.95;;;23.90;49.80;;;;;;4399917;60;21103;-27
2021/05/10 13:02:53;;;;;;;22.60;18.20;;;23.90;49.60;;;;;;4387067;64;21629;-25
2021/05/10 13:07:54;;;;;;;21.80;18.27;;;23.90;49.90;;;;;;4423395;60;21139;-25
2021/05/10 13:12:55;;;;;;;21.17;17.27;;;23.90;49.90;;;;;;4412863;60;21099;-27
2021/05/10 13:18:06;;;;;;;20.23;17.45;;;23.90;50.00;;;;;;4412058;60;21579;-23
2021/05/10 13:27:03;;;;;;;21.98;17.27;;;23.90;50.00;;;;;;4393317;60;21613;-24
2021/05/10 13:32:05;;;;;;;21.23;17.77;;;23.90;50.00;;;;;;4415318;60;21684;-26
2021/05/10 13:37:08;;;;;;;22.98;18.73;;;23.90;50.10;;;;;;4409635;60;21141;-26
2021/05/10 13:42:17;;;;;;;20.10;16.95;;;23.90;50.10;;;;;;4424292;60;21257;-24
2021/05/10 13:47:18;;;;;;;20.90;17.70;;;23.90;50.10;;;;;;4462409;60;21036;-26
2021/05/10 13:52:19;;;;;;;18.87;16.85;;;23.90;50.20;;;;;;4399233;60;21044;-26
2021/05/10 13:57:19;;;;;;;19.70;17.15;;;23.90;50.20;;;;;;4397108;60;21461;-25
2021/05/10 14:02:21;;;;;;;18.83;16.20;;;23.90;50.90;;;;;;4396378;60;21044;-23
2021/05/10 14:07:22;;;;;;;17.70;15.80;;;23.90;50.20;;;;;;4446042;60;21642;-26
2021/05/10 14:12:23;;;;;;;19.65;16.83;;;23.90;50.30;;;;;;4397252;60;21039;-25
2021/05/10 14:17:24;;;;;;;19.58;16.77;;;23.90;50.30;;;;;;4389875;60;21047;-28
2021/05/10 14:22:25;;;;;;;19.25;16.67;;;23.90;50.30;;;;;;4387738;64;21602;-27
2021/05/10 14:27:26;;;;;;;17.37;15.35;;;23.90;50.40;;;;;;4441203;60;21047;-22
2021/05/10 14:32:27;;;;;;;17.33;15.40;;;23.90;50.40;;;;;;4387447;60;21038;-25
2021/05/10 14:37:27;;;;;;;18.48;16.05;;;23.90;50.50;;;;;;4406160;60;21031;-26
2021/05/10 14:42:28;;;;;;;18.95;15.88;;;23.90;50.50;;;;;;4411884;60;21201;-26
2021/05/10 14:47:29;;;;;;;18.55;15.90;;;23.90;50.50;;;;;;4399185;60;21481;-23
2021/05/10 14:52:30;;;;;;;17.75;15.85;;;23.90;50.60;;;;;;4399334;60;21040;-24
2021/05/10 14:57:30;;;;;;;20.90;15.57;;;23.90;50.80;;;;;;4462317;60;21020;-23
2021/05/10 15:02:31;;;;;;;19.48;16.08;;;23.90;50.80;;;;;;4393062;60;21039;-26
2021/05/10 15:07:32;;;;;;;17.52;15.07;;;23.80;50.80;;;;;;4430674;60;21059;-21
2021/05/10 15:12:33;;;;;;;16.60;14.77;;;23.80;50.90;;;;;;4397722;60;21112;-27
2021/05/10 15:17:34;;;;;;;18.75;15.48;;;23.70;50.70;;;;;;4393238;60;21032;-26
2021/05/10 15:22:34;;;;;;;16.62;14.93;;;23.70;50.70;;;;;;4404747;60;21060;-26
2021/05/10 15:27:38;;;;;;;18.10;15.90;;;23.70;50.70;;;;;;4400919;60;21629;-26
2021/05/10 15:32:39;;;;;;;18.80;15.75;;;23.70;50.70;;;;;;4397946;60;21618;-26
2021/05/10 15:37:40;;;;;;;17.87;15.70;;;23.60;50.60;;;;;;4418088;60;21052;-24
2021/05/10 15:42:42;;;;;;;17.12;15.30;;;23.60;50.60;;;;;;4407481;60;21072;-23
2021/05/10 15:47:47;;;;;;;17.50;15.65;;;23.60;50.50;;;;;;4418072;60;21064;-21
2021/05/10 15:52:48;;;;;;;16.87;15.05;;;23.60;50.50;;;;;;4423340;60;21529;-25
2021/05/10 15:57:49;;;;;;;17.30;15.27;;;23.50;50.30;;;;;;4419372;60;21044;-27
2021/05/10 16:02:50;;;;;;;16.42;14.70;;;23.50;50.30;;;;;;4411340;60;21019;-25
2021/05/10 16:07:51;;;;;;;16.65;14.85;;;23.50;50.20;;;;;;4394821;60;21051;-25
2021/05/10 16:12:52;;;;;;;17.77;15.30;;;23.50;50.90;;;;;;4389895;60;21063;-25
2021/05/10 16:17:53;;;;;;;17.35;15.00;;;23.50;50.10;;;;;;4389721;60;21035;-21
2021/05/10 16:22:54;;;;;;;16.75;14.50;;;23.50;50.00;;;;;;4392726;60;21166;-26
2021/05/10 16:27:57;;;;;;;16.75;14.90;;;23.40;49.90;;;;;;4390801;60;21505;-26
2021/05/10 16:33:01;;;;;;;16.33;14.60;;;23.40;49.90;;;;;;4388603;60;21095;-27
2021/05/10 16:38:02;;;;;;;16.05;14.35;;;23.40;49.80;;;;;;4399022;60;21510;-24
2021/05/10 16:43:02;;;;;;;17.48;15.63;;;23.40;49.80;;;;;;4392277;60;21087;-23
2021/05/10 16:48:05;;;;;;;18.23;15.43;;;23.40;49.70;;;;;;4387312;64;21139;-24
2021/05/10 16:53:06;;;;;;;15.85;14.18;;;23.40;49.70;;;;;;4398512;60;21607;-25
2021/05/10 16:58:09;;;;;;;18.50;16.40;;;23.40;49.70;;;;;;4400352;60;21031;-22
2021/05/10 17:03:10;;;;;;;18.20;14.82;;;23.40;49.60;;;;;;4388103;64;22449;-28
2021/05/10 17:08:11;;;;;;;16.05;14.38;;;23.40;49.70;;;;;;4397434;60;22081;-27
2021/05/10 17:13:12;;;;;;;17.48;15.57;;;23.40;49.60;;;;;;4403744;60;21210;-25
2021/05/10 17:18:13;;;;;;;17.70;15.80;;;23.40;49.50;;;;;;4387433;64;21166;-25
2021/05/10 17:23:14;;;;;;;17.92;16.02;;;23.40;49.40;;;;;;4387883;64;21170;-26
2021/05/10 17:28:15;;;;;;;17.12;15.35;;;23.40;49.40;;;;;;4388135;60;21103;-28
2021/05/10 17:33:16;;;;;;;17.45;15.52;;;23.40;49.40;;;;;;4387724;64;21028;-28
2021/05/10 17:38:17;;;;;;;18.95;16.05;;;23.40;49.30;;;;;;4423497;60;21033;-26
2021/05/10 17:43:18;;;;;;;18.70;16.40;;;23.40;49.30;;;;;;4395294;60;21064;-24
2021/05/10 17:48:19;;;;;;;17.23;15.32;;;23.40;49.30;;;;;;4407876;60;21534;-26
2021/05/10 17:53:20;;;;;;;17.83;15.93;;;23.40;49.20;;;;;;4398565;60;21594;-27
2021/05/10 17:58:21;;;;;;;19.33;17.23;;;23.40;49.20;;;;;;4404802;60;21071;-25
2021/05/10 18:03:23;;;;;;;18.30;15.52;;;23.30;49.10;;;;;;4405243;60;21091;-27
2021/05/10 18:08:24;;;;;;;18.90;16.85;;;23.30;49.10;;;;;;4415578;60;22105;-27
2021/05/10 18:13:25;;;;;;;17.73;15.85;;;23.30;49.70;;;;;;4422859;60;21163;-24
2021/05/10 18:18:37;;;;;;;18.62;16.35;;;23.30;49.00;;;;;;4423255;60;21126;-27
2021/05/10 18:23:39;;;;;;;18.02;16.12;;;23.30;49.00;;;;;;4431450;60;21663;-26
2021/05/10 18:28:44;;;;;;;19.35;17.33;;;23.30;49.00;;;;;;4420476;60;21063;-24
2021/05/10 18:33:46;;;;;;;17.50;15.43;;;23.40;49.00;;;;;;4403430;60;21518;-26
2021/05/10 18:38:46;;;;;;;18.10;16.20;;;23.30;49.00;;;;;;4416398;60;21092;-26
2021/05/10 18:43:47;;;;;;;17.77;15.88;;;23.30;48.90;;;;;;4403718;60;21151;-26
2021/05/10 18:48:50;;;;;;;17.33;15.55;;;23.30;48.90;;;;;;4400416;60;21063;-26
2021/05/10 18:53:52;;;;;;;17.50;15.70;;;23.30;49.00;;;;;;4391867;60;21625;-26
2021/05/10 18:58:53;;;;;;;18.02;16.12;;;23.30;49.40;;;;;;4387977;60;21522;-24
2021/05/10 19:03:54;;;;;;;18.98;17.02;;;23.30;48.90;;;;;;4441274;60;21139;-27
2021/05/10 19:08:56;;;;;;;17.92;16.08;;;23.30;49.50;;;;;;4399827;60;21072;-24
2021/05/10 19:13:57;;;;;;;18.52;16.05;;;23.30;48.90;;;;;;4409337;60;21641;-27
2021/05/10 19:18:58;;;;;;;17.87;15.98;;;23.30;48.90;;;;;;4440416;60;21591;-27
2021/05/10 19:23:59;;;;;;;20.25;17.25;;;23.30;49.10;;;;;;4390010;60;21075;-25
2021/05/10 19:29:00;;;;;;;18.35;16.35;;;23.30;48.90;;;;;;4405179;60;21060;-28
2021/05/10 19:34:00;;;;;;;18.45;16.48;;;23.30;48.80;;;;;;4398034;60;21068;-27
2021/05/10 19:39:02;;;;;;;18.37;16.30;;;23.30;48.80;;;;;;4424182;60;21692;-24
2021/05/10 19:44:08;;;;;;;16.85;14.98;;;23.30;48.90;;;;;;4396202;60;21159;-23
2021/05/10 20:06:09;;;;;;;16.77;15.13;;;23.30;48.80;;;;;;4387796;64;21188;-27
2021/05/10 20:11:11;;;;;;;17.85;15.70;;;23.30;48.80;;;;;;4394689;60;21645;-24
2021/05/10 20:16:12;;;;;;;17.58;15.65;;;23.30;48.80;;;;;;4402966;60;21126;-24
2021/05/10 20:21:14;;;;;;;19.73;17.15;;;23.30;48.80;;;;;;4409248;60;21139;-24
2021/05/10 20:26:15;;;;;;;17.25;15.40;;;23.30;48.90;;;;;;4406422;60;21051;-22
2021/05/10 20:31:16;;;;;;;17.70;14.70;;;23.30;48.90;;;;;;4429492;60;21522;-24
2021/05/10 20:36:16;;;;;;;17.65;15.75;;;23.30;48.80;;;;;;4406471;60;21111;-23
2021/05/10 20:41:19;;;;;;;20.37;14.77;;;23.30;48.80;;;;;;4462019;60;21557;-22
2021/05/10 20:46:19;;;;;;;16.87;15.18;;;23.20;48.80;;;;;;4408892;60;21558;-27
2021/05/10 20:51:20;;;;;;;15.70;14.10;;;23.20;48.90;;;;;;4428366;60;21164;-25
2021/05/10 20:56:21;;;;;;;19.05;16.05;;;23.20;48.80;;;;;;4406832;60;21060;-24
2021/05/10 21:01:22;;;;;;;17.87;15.30;;;23.20;48.80;;;;;;4451833;60;21028;-23
2021/05/10 21:06:23;;;;;;;16.95;14.57;;;23.20;48.80;;;;;;4399614;60;21566;-24
2021/05/10 21:11:24;;;;;;;17.25;15.45;;;23.20;48.90;;;;;;4387834;64;21100;-23
2021/05/10 21:16:26;;;;;;;17.73;15.43;;;23.20;48.80;;;;;;4387101;64;21056;-25
2021/05/10 21:21:26;;;;;;;16.20;14.40;;;23.20;48.80;;;;;;4421328;60;21111;-21
2021/05/10 21:26:30;;;;;;;16.50;14.77;;;23.30;48.90;;;;;;4396648;60;21116;-21
2021/05/10 21:31:31;;;;;;;15.70;14.10;;;23.20;48.80;;;;;;4403691;60;21023;-27
2021/05/10 21:36:35;;;;;;;15.98;13.88;;;23.30;48.90;;;;;;4405037;60;21067;-24
2021/05/10 21:41:36;;;;;;;15.88;13.45;;;23.20;48.80;;;;;;4407659;60;21538;-27
2021/05/10 21:46:37;;;;;;;15.57;13.90;;;23.20;48.80;;;;;;4400419;60;21588;-25
2021/05/10 21:51:38;;;;;;;17.20;14.75;;;23.20;48.90;;;;;;4427067;60;21108;-24
2021/05/10 21:56:39;;;;;;;16.42;14.32;;;23.20;48.80;;;;;;4403003;60;21070;-26
2021/05/10 22:01:40;;;;;;;15.57;13.85;;;23.30;48.90;;;;;;4387838;64;21048;-27
2021/05/10 22:06:41;;;;;;;15.70;13.50;;;23.20;48.80;;;;;;4397690;60;21064;-25
2021/05/10 22:11:42;;;;;;;15.23;13.73;;;23.20;48.80;;;;;;4407511;60;21059;-24
2021/05/10 22:16:43;;;;;;;16.52;14.60;;;23.20;48.90;;;;;;4401465;60;21063;-27
2021/05/10 22:21:45;;;;;;;16.60;14.80;;;23.20;48.90;;;;;;4392050;60;21064;-24
2021/05/10 22:34:45;;;;;;;15.40;13.80;;;23.20;48.80;;;;;;4401847;60;21071;-27
2021/05/10 22:40:01;;;;;;;14.90;13.40;;;23.20;48.80;;;;;;4395182;60;21155;-26
2021/05/10 22:45:15;;;;;;;16.23;14.40;;;23.20;49.50;;;;;;4405594;60;21554;-27
2021/05/10 22:50:36;;;;;;;15.00;13.15;;;23.20;48.80;;;;;;4415471;60;21638;-27
2021/05/10 23:08:19;;;;;;;17.05;14.10;;;23.20;48.90;;;;;;4387303;64;21072;-27
2021/05/10 23:20:16;;;;;;;14.75;13.25;;;23.20;48.90;;;;;;4428823;60;21136;-27
2021/05/10 23:25:19;;;;;;;15.25;12.75;;;23.20;48.90;;;;;;4426681;60;21529;-27
2021/05/10 23:30:20;;;;;;;13.43;12.02;;;23.20;48.90;;;;;;4436366;60;21646;-23
2021/05/10 23:35:24;;;;;;;13.48;12.07;;;23.20;48.90;;;;;;4399532;60;21638;-22
2021/05/10 23:40:25;;;;;;;13.23;11.82;;;23.20;49.00;;;;;;4389578;60;21032;-27
2021/05/10 23:45:26;;;;;;;13.68;12.18;;;23.20;48.80;;;;;;4447080;60;21119;-30
2021/05/10 23:50:26;;;;;;;14.30;12.37;;;23.20;48.90;;;;;;4404512;60;21529;-26
2021/05/10 23:55:27;;;;;;;14.70;12.73;;;23.20;48.90;;;;;;4411291;60;21100;-26
